Time;durP1;ratioP1;P1;durP2;ratioP2;P2;SDS_P1;SDS_P2;PMS_P1;PMS_P2;Temp;Humidity;BMP_temperature;BMP_pressure;BME280_temperature;BME280_humidity;BME280_pressure;Samples;Min_cycle;Max_cycle;Signal;HPM_P1;HPM_P2
2021/12/03 00:00:37;;;;;;;6.93;5.27;;;0.30;99.90;;;0.71;100.00;99375.63;4992924;28;20283;-73
2021/12/03 00:03:07;;;;;;;8.57;4.73;;;0.30;99.90;;;0.65;100.00;99375.50;4993161;28;20183;-73
2021/12/03 00:05:36;;;;;;;5.80;4.27;;;0.20;99.90;;;0.63;100.00;99377.50;4992922;28;20225;-72
2021/12/03 00:08:05;;;;;;;7.90;4.43;;;0.20;99.90;;;0.69;100.00;99392.72;4992710;28;20310;-71
2021/12/03 00:10:36;;;;;;;7.27;4.40;;;0.20;99.90;;;0.59;100.00;99397.44;4992856;28;20231;-73
2021/12/03 00:13:07;;;;;;;10.10;5.67;;;0.10;99.90;;;0.63;100.00;99407.50;4992799;28;20297;-73
2021/12/03 00:15:37;;;;;;;7.23;4.80;;;0.10;99.90;;;0.62;100.00;99410.31;4992884;28;20292;-72
2021/12/03 00:18:05;;;;;;;9.90;4.40;;;0.10;99.90;;;0.49;100.00;99408.22;4993767;28;20536;-72
2021/12/03 00:20:35;;;;;;;6.93;4.20;;;0.00;99.90;;;0.55;100.00;99409.34;4992861;28;20295;-72
2021/12/03 00:23:05;;;;;;;9.60;4.33;;;0.00;99.90;;;0.57;100.00;99410.00;4993592;28;20197;-74
2021/12/03 00:25:35;;;;;;;7.50;3.90;;;0.00;99.90;;;0.61;100.00;99411.31;4993298;28;20185;-72
2021/12/03 00:28:05;;;;;;;5.73;4.47;;;0.00;99.90;;;0.60;100.00;99409.66;4993583;28;20235;-72
2021/12/03 00:30:34;;;;;;;6.83;4.50;;;0.00;99.90;;;0.59;100.00;99405.38;4994089;28;20289;-71
2021/12/03 00:33:06;;;;;;;8.43;4.23;;;0.00;99.90;;;0.65;100.00;99415.25;4995543;28;20244;-72
2021/12/03 00:35:34;;;;;;;6.33;4.00;;;0.10;99.90;;;0.51;100.00;99413.38;4985939;28;20322;-73
2021/12/03 00:38:04;;;;;;;8.93;4.53;;;0.00;99.90;;;0.48;100.00;99417.19;4978651;28;20288;-72
2021/12/03 00:40:38;;;;;;;6.60;4.40;;;0.00;99.90;;;0.45;100.00;99416.69;4977354;28;20342;-72
2021/12/03 00:43:08;;;;;;;9.83;5.03;;;0.00;99.90;;;0.60;100.00;99430.84;4977825;28;20313;-72
2021/12/03 00:45:37;;;;;;;7.83;4.87;;;0.00;99.90;;;0.56;100.00;99422.44;4977600;28;20185;-72
2021/12/03 00:48:07;;;;;;;11.87;5.73;;;0.00;99.90;;;0.61;100.00;99424.56;4977207;28;20293;-73
2021/12/03 00:50:35;;;;;;;8.87;5.80;;;0.00;99.90;;;0.51;100.00;99416.81;4976879;28;20240;-74
2021/12/03 00:53:03;;;;;;;9.17;5.87;;;0.00;99.90;;;0.52;100.00;99420.31;4977007;28;20773;-72
2021/12/03 00:55:33;;;;;;;9.23;5.97;;;0.00;99.90;;;0.46;100.00;99421.00;4977143;28;20623;-73
2021/12/03 00:58:02;;;;;;;10.10;6.43;;;0.00;99.90;;;0.54;100.00;99421.78;4977044;28;20587;-73
2021/12/03 01:00:33;;;;;;;10.53;6.30;;;0.00;99.90;;;0.48;100.00;99432.25;4976880;28;20385;-73
2021/12/03 01:03:04;;;;;;;11.07;7.00;;;0.00;99.90;;;0.71;100.00;99430.47;4976707;28;20245;-73
2021/12/03 01:05:35;;;;;;;9.80;6.77;;;0.00;99.90;;;0.60;100.00;99422.91;4976767;28;20190;-72
2021/12/03 01:08:04;;;;;;;10.10;6.90;;;0.00;99.90;;;0.60;100.00;99431.69;4976689;28;20620;-72
2021/12/03 01:10:32;;;;;;;10.70;7.57;;;0.00;99.90;;;0.42;100.00;99435.59;4977163;28;20607;-72
2021/12/03 01:13:01;;;;;;;11.77;9.20;;;-0.10;99.90;;;0.58;100.00;99435.50;4977461;28;20274;-72
2021/12/03 01:15:35;;;;;;;11.13;8.43;;;0.00;99.90;;;0.48;100.00;99429.59;4977054;28;20213;-72
2021/12/03 01:18:07;;;;;;;10.73;7.73;;;0.00;99.90;;;0.48;100.00;99426.94;4976851;28;20189;-73
2021/12/03 01:20:38;;;;;;;8.30;6.50;;;0.00;99.90;;;0.52;100.00;99429.09;4976381;28;20379;-74
2021/12/03 01:23:09;;;;;;;11.37;6.13;;;0.00;99.90;;;0.58;100.00;99419.59;4976875;28;20272;-73
2021/12/03 01:25:37;;;;;;;10.03;6.67;;;0.00;99.90;;;0.52;100.00;99422.97;4976335;28;20643;-72
2021/12/03 01:28:06;;;;;;;8.37;5.93;;;-0.10;99.90;;;0.46;100.00;99418.34;4976065;28;20442;-73
2021/12/03 01:30:35;;;;;;;8.33;5.73;;;-0.10;99.90;;;0.33;100.00;99418.09;4988227;28;20667;-73
2021/12/03 01:33:06;;;;;;;8.63;5.70;;;-0.10;99.90;;;0.45;100.00;99425.47;4994402;28;20203;-73
2021/12/03 01:35:37;;;;;;;8.23;5.30;;;-0.10;99.90;;;0.43;100.00;99413.41;4994193;28;20660;-72
2021/12/03 01:38:08;;;;;;;9.43;6.73;;;-0.10;99.90;;;0.49;100.00;99407.41;4994543;28;20689;-73
2021/12/03 01:40:38;;;;;;;7.47;5.47;;;-0.10;99.90;;;0.53;100.00;99414.00;4994495;28;20224;-72
2021/12/03 01:43:08;;;;;;;8.00;5.73;;;-0.10;99.90;;;0.41;100.00;99416.22;4994241;28;20799;-72
2021/12/03 01:45:40;;;;;;;9.10;6.33;;;-0.10;99.90;;;0.41;100.00;99420.69;4994482;28;20277;-72
2021/12/03 01:48:08;;;;;;;10.90;7.43;;;-0.10;99.90;;;0.49;100.00;99418.81;4994492;28;20275;-72
2021/12/03 01:50:42;;;;;;;10.97;7.17;;;-0.10;99.90;;;0.44;100.00;99433.59;4994126;28;20338;-74
2021/12/03 01:53:13;;;;;;;9.17;6.70;;;-0.10;99.90;;;0.64;100.00;99434.81;4994433;28;20239;-73
2021/12/03 01:55:43;;;;;;;9.90;8.23;;;-0.10;99.90;;;0.51;100.00;99445.97;4994195;28;20198;-72
2021/12/03 01:58:13;;;;;;;9.50;7.67;;;-0.10;99.90;;;0.64;100.00;99440.94;4994373;28;20278;-72
2021/12/03 02:00:46;;;;;;;11.70;9.17;;;-0.10;99.90;;;0.44;100.00;99441.56;4993736;28;20670;-71
2021/12/03 02:03:15;;;;;;;11.97;8.10;;;-0.10;99.90;;;0.32;100.00;99445.56;4994436;28;20189;-72
2021/12/03 02:05:46;;;;;;;10.03;6.30;;;-0.20;99.90;;;0.55;100.00;99443.78;4993972;28;20204;-72
2021/12/03 02:08:15;;;;;;;8.27;6.07;;;-0.20;99.90;;;0.33;100.00;99440.09;4994233;28;20186;-72
2021/12/03 02:10:45;;;;;;;9.33;6.47;;;-0.20;99.90;;;0.28;100.00;99446.91;4993703;28;20219;-72
2021/12/03 02:13:16;;;;;;;8.20;6.47;;;-0.20;99.90;;;0.36;100.00;99460.94;4993797;28;20314;-72
2021/12/03 02:15:45;;;;;;;8.93;6.70;;;-0.20;99.90;;;0.40;100.00;99451.66;4994165;28;20283;-72
2021/12/03 02:18:15;;;;;;;7.00;5.10;;;-0.20;99.90;;;0.51;100.00;99448.63;4994082;28;20204;-73
2021/12/03 02:20:46;;;;;;;7.47;5.50;;;-0.20;99.90;;;0.41;100.00;99447.16;4993993;28;20181;-71
2021/12/03 02:23:15;;;;;;;8.33;5.00;;;-0.20;99.90;;;0.40;100.00;99450.81;4993457;28;20206;-71
2021/12/03 02:25:44;;;;;;;6.03;4.47;;;-0.20;99.90;;;0.48;100.00;99454.25;4993397;28;20296;-71
2021/12/03 02:28:14;;;;;;;7.27;5.10;;;-0.20;99.90;;;0.28;100.00;99460.16;4959278;28;1014305;-72
2021/12/03 02:30:45;;;;;;;6.83;4.83;;;-0.20;99.90;;;0.24;100.00;99458.84;4995326;28;20566;-71
2021/12/03 02:33:14;;;;;;;7.23;5.10;;;-0.20;99.90;;;0.15;100.00;99467.81;4994333;28;20201;-71
2021/12/03 02:35:44;;;;;;;7.40;5.67;;;-0.30;99.90;;;0.38;100.00;99468.72;4994475;28;20291;-71
2021/12/03 02:38:19;;;;;;;7.13;5.23;;;-0.30;99.90;;;0.32;100.00;99464.13;4995146;28;20627;-71
2021/12/03 02:40:51;;;;;;;8.93;5.53;;;-0.30;99.90;;;0.30;100.00;99469.59;4994652;28;20189;-72
2021/12/03 02:43:21;;;;;;;8.37;5.20;;;-0.30;99.90;;;0.30;100.00;99461.63;4994443;28;20699;-71
2021/12/03 02:45:51;;;;;;;7.73;6.00;;;-0.20;99.90;;;0.24;100.00;99466.81;4994583;28;20252;-71
2021/12/03 02:48:21;;;;;;;9.20;5.90;;;-0.30;99.90;;;0.22;100.00;99466.94;4994587;28;20217;-70
2021/12/03 02:50:50;;;;;;;7.77;5.40;;;-0.30;99.90;;;0.14;100.00;99471.44;4994588;28;20306;-71
2021/12/03 02:53:20;;;;;;;8.13;5.60;;;-0.40;99.90;;;0.25;100.00;99474.56;4994061;28;20200;-72
2021/12/03 02:55:49;;;;;;;9.30;5.93;;;-0.30;99.90;;;0.21;100.00;99483.00;4993956;28;20238;-71
2021/12/03 02:58:18;;;;;;;8.20;5.70;;;-0.40;99.90;;;0.15;100.00;99478.41;4994099;28;20294;-72
2021/12/03 03:00:49;;;;;;;8.00;5.73;;;-0.40;99.90;;;0.16;100.00;99482.69;4994882;28;20212;-71
2021/12/03 03:03:17;;;;;;;9.43;5.00;;;-0.40;99.90;;;0.12;100.00;99484.84;4994483;28;20287;-71
2021/12/03 03:05:54;;;;;;;7.87;5.40;;;-0.40;99.90;;;0.18;100.00;99486.00;4994233;28;20295;-72
2021/12/03 03:08:25;;;;;;;6.67;4.47;;;-0.40;99.90;;;0.08;100.00;99491.50;4993880;28;20605;-71
2021/12/03 03:10:55;;;;;;;6.87;4.43;;;-0.40;99.90;;;0.27;100.00;99488.44;4993806;28;20243;-72
2021/12/03 03:13:24;;;;;;;6.93;4.70;;;-0.40;99.90;;;0.34;100.00;99478.00;4993731;28;20287;-72
2021/12/03 03:15:53;;;;;;;7.13;4.80;;;-0.30;99.90;;;0.28;100.00;99476.03;4994277;28;20299;-72
2021/12/03 03:18:24;;;;;;;7.17;4.40;;;-0.30;99.90;;;0.45;100.00;99474.97;4994106;28;20203;-71
2021/12/03 03:20:59;;;;;;;7.33;4.40;;;-0.30;99.90;;;0.46;100.00;99472.16;4993915;28;20244;-72
2021/12/03 03:23:29;;;;;;;8.40;4.53;;;-0.20;99.90;;;0.24;100.00;99467.59;4993394;28;20300;-72
2021/12/03 03:25:58;;;;;;;5.67;4.50;;;-0.30;99.90;;;0.24;100.00;99466.81;4993730;28;20608;-73
2021/12/03 03:28:27;;;;;;;6.63;4.90;;;-0.30;99.90;;;0.33;100.00;99461.28;4993235;28;20254;-71
2021/12/03 03:30:57;;;;;;;7.07;4.87;;;-0.30;99.90;;;0.18;100.00;99463.00;4993715;28;20232;-72
2021/12/03 03:33:25;;;;;;;7.93;5.37;;;-0.30;99.90;;;0.22;100.00;99466.94;4993257;28;20198;-71
2021/12/03 03:35:53;;;;;;;8.33;6.73;;;-0.30;99.90;;;0.13;100.00;99473.28;4993349;28;20204;-71
2021/12/03 03:38:22;;;;;;;9.30;6.70;;;-0.40;99.90;;;0.14;100.00;99476.72;4993272;28;20243;-71
2021/12/03 03:40:52;;;;;;;8.60;5.00;;;-0.40;99.90;;;0.11;100.00;99479.72;4993202;28;20665;-71
2021/12/03 03:43:22;;;;;;;8.77;5.60;;;-0.30;99.90;;;0.07;100.00;99481.88;4993763;28;20286;-71
2021/12/03 03:45:51;;;;;;;9.73;5.13;;;-0.40;99.90;;;0.12;100.00;99474.25;4993667;28;20235;-72
2021/12/03 03:48:20;;;;;;;7.67;4.63;;;-0.40;99.90;;;0.21;100.00;99472.41;4993223;28;20215;-70
2021/12/03 03:50:48;;;;;;;7.53;4.90;;;-0.30;99.90;;;0.30;100.00;99477.53;4992922;28;20687;-72
2021/12/03 03:53:17;;;;;;;7.77;4.93;;;-0.30;99.90;;;0.26;100.00;99468.25;4993389;28;20238;-71
2021/12/03 03:55:45;;;;;;;5.80;4.67;;;-0.30;99.90;;;0.33;100.00;99474.53;4993416;28;20214;-71
2021/12/03 03:58:15;;;;;;;9.10;4.90;;;-0.30;99.90;;;0.25;100.00;99471.91;4995102;28;20750;-71
2021/12/03 04:00:46;;;;;;;6.70;4.50;;;-0.30;99.90;;;0.21;100.00;99483.84;4993603;28;20223;-72
2021/12/03 04:03:15;;;;;;;7.90;4.77;;;-0.30;99.90;;;0.15;100.00;99483.69;4993388;28;20195;-71
2021/12/03 04:05:43;;;;;;;9.17;5.00;;;-0.30;99.90;;;0.22;100.00;99476.72;4993190;28;20753;-71
2021/12/03 04:08:12;;;;;;;7.70;4.40;;;-0.30;99.90;;;0.12;100.00;99482.19;4991850;28;20291;-71
2021/12/03 04:10:40;;;;;;;7.90;4.50;;;-0.30;99.90;;;0.19;100.00;99485.03;4992935;28;20616;-71
2021/12/03 04:13:09;;;;;;;6.77;4.63;;;-0.40;99.90;;;0.27;100.00;99487.63;4993300;28;20205;-71
2021/12/03 04:15:38;;;;;;;7.80;5.33;;;-0.30;99.90;;;0.35;100.00;99490.25;4993258;28;20204;-71
2021/12/03 04:18:06;;;;;;;8.33;5.43;;;-0.30;99.90;;;0.42;100.00;99491.22;4992532;28;20265;-71
2021/12/03 04:20:35;;;;;;;7.03;5.00;;;-0.30;99.90;;;0.10;100.00;99491.31;4993056;28;20278;-71
2021/12/03 04:23:04;;;;;;;9.83;5.27;;;-0.30;99.90;;;0.12;100.00;99503.38;4993045;28;20200;-71
2021/12/03 04:25:33;;;;;;;7.23;5.63;;;-0.40;99.90;;;0.20;100.00;99505.19;4992831;28;20208;-72
2021/12/03 04:28:02;;;;;;;9.27;6.27;;;-0.40;99.90;;;0.21;100.00;99514.78;4992884;28;20263;-71
2021/12/03 04:30:31;;;;;;;8.60;6.73;;;-0.40;99.90;;;0.10;100.00;99513.34;4993060;28;20219;-72
2021/12/03 04:33:01;;;;;;;7.77;4.73;;;-0.40;99.90;;;0.14;100.00;99521.75;4992886;28;20285;-72
2021/12/03 04:35:30;;;;;;;7.60;4.80;;;-0.40;99.90;;;0.14;100.00;99517.28;4992667;28;20619;-72
2021/12/03 04:37:58;;;;;;;9.20;5.23;;;-0.40;99.90;;;0.03;100.00;99522.94;4992563;28;20294;-73
2021/12/03 04:40:34;;;;;;;8.53;4.47;;;-0.40;99.90;;;-0.02;100.00;99526.06;4992657;28;20223;-71
2021/12/03 04:43:02;;;;;;;7.77;4.57;;;-0.50;99.90;;;0.10;100.00;99534.50;4992482;28;20643;-72
2021/12/03 04:45:32;;;;;;;6.97;4.67;;;-0.50;99.90;;;0.07;100.00;99537.47;4992913;28;20201;-70
2021/12/03 04:48:04;;;;;;;7.37;4.80;;;-0.50;99.90;;;0.09;100.00;99537.31;4992527;28;20274;-73
2021/12/03 04:50:36;;;;;;;8.23;4.33;;;-0.50;99.90;;;0.10;100.00;99533.69;4992279;28;20230;-72
2021/12/03 04:53:06;;;;;;;8.17;4.43;;;-0.40;99.90;;;0.03;100.00;99535.34;4992825;28;20604;-72
2021/12/03 04:55:36;;;;;;;5.43;4.23;;;-0.50;99.90;;;-0.01;100.00;99527.75;4992406;28;20242;-71
2021/12/03 04:58:05;;;;;;;9.90;3.80;;;-0.50;99.90;;;0.09;100.00;99538.13;4992830;28;20289;-71
2021/12/03 05:00:38;;;;;;;6.97;3.73;;;-0.50;99.90;;;0.09;100.00;99524.91;4992694;28;20291;-71
2021/12/03 05:03:08;;;;;;;4.50;3.10;;;-0.40;99.90;;;0.29;100.00;99534.13;4992604;28;20192;-71
2021/12/03 05:05:37;;;;;;;6.60;4.00;;;-0.40;99.90;;;0.08;100.00;99525.06;4992332;28;20237;-72
2021/12/03 05:08:09;;;;;;;7.23;4.27;;;-0.50;99.90;;;0.02;100.00;99520.47;4992627;28;20210;-71
2021/12/03 05:10:40;;;;;;;6.23;3.73;;;-0.50;99.90;;;0.11;100.00;99530.03;4992540;28;20195;-70
2021/12/03 05:13:11;;;;;;;4.80;3.80;;;-0.50;99.90;;;0.02;100.00;99528.41;4992767;28;20279;-72
2021/12/03 05:15:40;;;;;;;6.60;5.03;;;-0.50;99.90;;;0.05;100.00;99541.31;4993902;28;20227;-71
2021/12/03 05:18:13;;;;;;;6.17;4.97;;;-0.50;99.90;;;-0.05;100.00;99542.28;4994738;28;20231;-70
2021/12/03 05:20:43;;;;;;;7.03;4.60;;;-0.60;99.90;;;-0.17;100.00;99554.22;4995728;28;20645;-70
2021/12/03 05:23:11;;;;;;;7.37;4.20;;;-0.60;99.90;;;-0.06;100.00;99548.59;4996103;28;20250;-72
2021/12/03 05:25:40;;;;;;;5.77;4.20;;;-0.60;99.90;;;-0.12;100.00;99559.81;4995794;28;20297;-71
2021/12/03 05:28:09;;;;;;;5.60;4.10;;;-0.60;99.90;;;-0.10;100.00;99564.94;4995700;28;20235;-71
2021/12/03 05:30:38;;;;;;;5.63;4.00;;;-0.60;99.90;;;-0.20;100.00;99551.06;4995543;28;20199;-71
2021/12/03 05:33:07;;;;;;;6.43;3.80;;;-0.60;99.90;;;-0.05;100.00;99565.28;4995312;28;20572;-70
2021/12/03 05:35:38;;;;;;;7.23;3.83;;;-0.60;99.90;;;-0.10;100.00;99565.78;4995165;28;20231;-70
2021/12/03 05:38:08;;;;;;;4.70;3.60;;;-0.60;99.90;;;0.01;100.00;99556.69;4995752;28;20190;-70
2021/12/03 05:40:36;;;;;;;4.53;3.23;;;-0.60;99.90;;;-0.13;100.00;99563.47;4995536;28;20301;-71
2021/12/03 05:43:04;;;;;;;7.27;4.00;;;-0.60;99.90;;;-0.01;100.00;99571.91;4995662;28;20227;-70
2021/12/03 05:45:35;;;;;;;6.90;5.00;;;-0.60;99.90;;;-0.23;100.00;99575.22;4995074;28;20698;-71
2021/12/03 05:48:04;;;;;;;7.40;4.50;;;-0.70;99.90;;;-0.19;100.00;99574.72;4995303;28;20251;-70
2021/12/03 05:50:33;;;;;;;6.73;4.50;;;-0.70;99.90;;;-0.18;100.00;99580.84;4994496;28;20755;-70
2021/12/03 05:53:03;;;;;;;5.13;3.70;;;-0.70;99.90;;;-0.03;100.00;99584.47;4994933;28;20333;-71
2021/12/03 05:55:31;;;;;;;7.63;4.10;;;-0.70;99.90;;;-0.16;100.00;99581.50;4995177;28;20250;-71
2021/12/03 05:57:59;;;;;;;7.63;4.57;;;-0.70;99.90;;;-0.09;100.00;99587.78;4995206;28;20294;-71
2021/12/03 06:00:32;;;;;;;8.83;4.97;;;-0.70;99.90;;;-0.16;100.00;99590.28;4994800;28;20206;-70
2021/12/03 06:03:01;;;;;;;7.50;4.37;;;-0.70;99.90;;;-0.08;100.00;99589.44;4995118;28;20195;-71
2021/12/03 06:05:29;;;;;;;7.03;4.30;;;-0.70;99.90;;;-0.19;100.00;99589.78;4994974;28;20203;-71
2021/12/03 06:07:58;;;;;;;6.20;4.40;;;-0.70;99.90;;;-0.23;100.00;99591.94;4994683;28;20302;-70
2021/12/03 06:10:28;;;;;;;5.83;3.93;;;-0.70;99.90;;;-0.22;100.00;99588.28;4994578;28;20230;-71
2021/12/03 06:12:57;;;;;;;5.37;4.00;;;-0.70;99.90;;;-0.12;100.00;99594.22;4994896;28;20258;-71
2021/12/03 06:15:27;;;;;;;4.93;3.97;;;-0.80;99.90;;;-0.15;100.00;99599.88;4994809;28;20203;-71
2021/12/03 06:17:56;;;;;;;5.30;4.00;;;-0.70;99.90;;;-0.07;100.00;99601.69;4995242;28;20292;-70
2021/12/03 06:20:25;;;;;;;6.53;3.93;;;-0.70;99.90;;;-0.20;100.00;99601.34;4994760;28;20227;-70
2021/12/03 06:22:53;;;;;;;7.18;4.60;;;-0.70;99.90;;;-0.17;100.00;99595.75;4993999;28;20491;-70
2021/12/03 06:25:23;;;;;;;6.60;4.87;;;-0.70;99.90;;;-0.22;100.00;99604.16;4994254;28;20214;-70
2021/12/03 06:27:54;;;;;;;6.50;4.57;;;-0.70;99.90;;;-0.11;100.00;99598.56;4994442;28;20277;-70
2021/12/03 06:30:23;;;;;;;7.07;4.80;;;-0.70;99.90;;;-0.04;100.00;99607.50;4993684;28;20233;-69
2021/12/03 06:32:52;;;;;;;6.13;4.40;;;-0.70;99.90;;;-0.05;100.00;99608.47;4994567;28;20262;-71
2021/12/03 06:35:21;;;;;;;6.43;4.93;;;-0.60;99.90;;;-0.08;100.00;99614.09;4993972;28;20293;-65
2021/12/03 06:37:51;;;;;;;7.13;5.03;;;-0.60;99.90;;;-0.14;100.00;99609.47;4994002;28;20747;-65
2021/12/03 06:40:24;;;;;;;7.73;4.97;;;-0.70;99.90;;;0.04;100.00;99611.94;4994433;28;20296;-65
2021/12/03 06:42:54;;;;;;;7.30;4.90;;;-0.60;99.90;;;0.03;100.00;99610.28;4994079;28;20187;-64
2021/12/03 06:45:23;;;;;;;8.37;4.97;;;-0.60;99.90;;;0.10;100.00;99618.41;4994356;28;20245;-64
2021/12/03 06:47:52;;;;;;;8.27;4.40;;;-0.50;99.90;;;0.06;100.00;99611.75;4994029;28;20622;-65
2021/12/03 06:50:23;;;;;;;7.93;4.70;;;-0.50;99.90;;;0.08;100.00;99615.06;4993893;28;20208;-66
2021/12/03 06:52:57;;;;;;;7.03;4.40;;;-0.50;99.90;;;0.12;100.00;99613.75;4993730;28;20212;-67
2021/12/03 06:55:26;;;;;;;8.23;4.30;;;-0.50;99.90;;;0.18;100.00;99608.63;4993912;28;20191;-67
2021/12/03 06:57:56;;;;;;;8.13;4.00;;;-0.40;99.90;;;0.11;100.00;99609.44;4993884;28;20214;-67
2021/12/03 07:00:24;;;;;;;7.30;4.60;;;-0.40;99.90;;;0.20;100.00;99624.34;4993951;28;20206;-67
2021/12/03 07:02:52;;;;;;;7.20;4.33;;;-0.40;99.90;;;0.14;100.00;99619.69;4993812;28;20643;-66
2021/12/03 07:05:21;;;;;;;6.10;4.50;;;-0.40;99.90;;;0.17;100.00;99614.09;4993573;28;20300;-66
2021/12/03 07:07:50;;;;;;;7.50;4.40;;;-0.40;99.90;;;0.12;100.00;99638.41;4993432;28;20261;-66
2021/12/03 07:10:18;;;;;;;7.57;4.40;;;-0.40;99.90;;;0.24;100.00;99637.06;4993762;28;20245;-66
2021/12/03 07:12:46;;;;;;;6.40;4.10;;;-0.40;99.90;;;0.34;100.00;99636.91;4993212;28;20778;-66
2021/12/03 07:15:16;;;;;;;8.67;4.77;;;-0.40;99.90;;;0.35;100.00;99641.19;4993700;28;20298;-67
2021/12/03 07:17:49;;;;;;;6.77;4.13;;;-0.30;99.90;;;0.40;100.00;99637.06;4993850;28;20243;-67
2021/12/03 07:20:19;;;;;;;7.03;4.40;;;-0.30;99.90;;;0.33;100.00;99637.88;4993337;28;20191;-66
2021/12/03 07:22:48;;;;;;;7.90;4.80;;;-0.30;99.90;;;0.25;100.00;99638.75;4993391;28;20229;-66
2021/12/03 07:25:17;;;;;;;7.17;4.70;;;-0.30;99.90;;;0.32;100.00;99645.03;4993126;28;20558;-65
2021/12/03 07:27:45;;;;;;;7.83;4.70;;;-0.20;99.90;;;0.40;100.00;99639.72;4993073;28;20241;-62
2021/12/03 07:30:18;;;;;;;6.93;4.00;;;-0.20;99.90;;;0.37;100.00;99633.94;4993300;28;20207;-66
2021/12/03 07:32:47;;;;;;;6.63;4.00;;;-0.20;99.90;;;0.42;100.00;99634.25;4992918;28;20575;-66
2021/12/03 07:35:15;;;;;;;6.13;3.97;;;-0.20;99.90;;;0.42;100.00;99652.78;4993084;28;20217;-67
2021/12/03 07:37:43;;;;;;;5.43;3.97;;;-0.20;99.90;;;0.68;100.00;99642.78;4993019;28;20310;-66
2021/12/03 07:40:13;;;;;;;5.63;3.23;;;-0.10;99.90;;;0.58;100.00;99650.09;4992839;28;20206;-67
2021/12/03 07:42:42;;;;;;;5.37;3.30;;;-0.10;99.90;;;0.75;100.00;99644.59;4992948;28;20297;-66
2021/12/03 07:45:14;;;;;;;5.57;3.67;;;0.00;99.90;;;0.88;100.00;99649.38;4992960;28;20298;-67
2021/12/03 07:47:43;;;;;;;5.87;3.67;;;0.00;99.90;;;0.82;100.00;99658.84;4992864;28;20220;-66
2021/12/03 07:50:13;;;;;;;6.97;3.40;;;0.10;99.90;;;0.77;100.00;99655.03;4993012;28;20601;-66
2021/12/03 07:52:41;;;;;;;5.70;3.40;;;0.10;99.90;;;0.82;100.00;99664.13;4992754;28;20560;-64
2021/12/03 07:55:10;;;;;;;4.47;2.90;;;0.10;99.90;;;0.85;100.00;99658.47;4992600;28;20715;-66
2021/12/03 07:57:38;;;;;;;4.97;2.80;;;0.10;99.90;;;0.84;100.00;99659.50;4993167;28;20197;-65
2021/12/03 08:00:09;;;;;;;3.43;2.70;;;0.20;99.90;;;1.00;100.00;99661.25;4993020;28;20213;-67
2021/12/03 08:02:37;;;;;;;4.97;2.70;;;0.30;99.90;;;1.14;100.00;99660.53;4992054;28;20254;-66
2021/12/03 08:05:07;;;;;;;4.30;3.37;;;0.30;99.90;;;1.30;100.00;99670.25;4992810;28;20207;-66
2021/12/03 08:07:35;;;;;;;6.00;2.80;;;0.40;99.90;;;1.28;100.00;99662.47;4992742;28;20285;-65
2021/12/03 08:10:05;;;;;;;3.80;2.70;;;0.50;99.90;;;1.21;100.00;99675.59;4992769;28;20204;-65
2021/12/03 08:12:33;;;;;;;7.67;2.50;;;0.50;99.90;;;1.22;100.00;99669.28;4992744;28;20223;-66
2021/12/03 08:15:01;;;;;;;3.30;2.00;;;0.50;99.90;;;1.19;100.00;99674.94;4992620;28;20207;-65
2021/12/03 08:17:29;;;;;;;6.23;2.57;;;0.60;99.90;;;1.17;100.00;99678.75;4992695;28;20215;-65
2021/12/03 08:19:57;;;;;;;5.97;2.43;;;0.60;99.90;;;1.18;100.00;99678.56;4992935;28;20203;-66
2021/12/03 08:22:26;;;;;;;3.50;2.30;;;0.60;99.90;;;1.51;100.00;99681.91;4992480;28;20250;-66
2021/12/03 08:24:55;;;;;;;5.37;2.00;;;0.70;99.90;;;1.46;100.00;99684.28;4992730;28;20343;-65
2021/12/03 08:27:23;;;;;;;2.70;2.00;;;0.80;99.90;;;1.48;100.00;99684.09;4992539;28;20297;-65
2021/12/03 08:29:51;;;;;;;2.90;2.13;;;0.70;99.90;;;1.41;100.00;99680.47;4993154;28;20287;-66
2021/12/03 08:32:19;;;;;;;3.10;2.03;;;0.80;99.90;;;1.46;100.00;99678.97;4992592;28;20210;-65
2021/12/03 08:34:47;;;;;;;6.30;1.97;;;0.70;99.90;;;1.39;100.00;99691.25;4992163;28;20659;-67
2021/12/03 08:37:15;;;;;;;3.63;2.20;;;0.70;99.90;;;1.37;100.00;99682.66;4992332;28;20672;-66
2021/12/03 08:39:45;;;;;;;4.60;2.20;;;0.70;99.90;;;1.42;100.00;99680.28;4992580;28;20203;-66
2021/12/03 08:42:13;;;;;;;3.90;2.60;;;0.70;99.90;;;1.64;100.00;99671.56;4992584;28;20231;-65
2021/12/03 08:44:41;;;;;;;2.77;1.80;;;0.80;99.90;;;2.20;100.00;99675.66;4992752;28;20305;-66
2021/12/03 08:47:09;;;;;;;5.50;2.30;;;1.10;99.90;;;2.17;100.00;99676.00;4992587;28;20298;-67
2021/12/03 08:49:38;;;;;;;3.23;1.83;;;1.20;99.90;;;2.21;98.55;99679.97;4992111;28;20278;-66
2021/12/03 08:52:49;;;;;;;4.17;2.10;;;1.40;99.90;;;2.12;99.02;99681.03;4992722;28;20270;-66
2021/12/03 08:55:18;;;;;;;2.70;2.00;;;1.30;99.90;;;2.06;98.96;99693.19;4996329;28;20188;-66
2021/12/03 08:57:46;;;;;;;2.43;2.00;;;1.30;99.90;;;2.12;98.56;99692.50;4996200;28;20294;-66
2021/12/03 09:00:20;;;;;;;2.13;1.93;;;1.30;99.90;;;2.09;98.83;99698.16;4996057;28;20208;-66
2021/12/03 09:02:49;;;;;;;4.43;2.07;;;1.30;99.90;;;2.05;100.00;99698.69;4995954;28;20226;-67
2021/12/03 09:05:18;;;;;;;2.80;1.90;;;1.30;99.90;;;2.16;98.66;99700.94;4995884;28;20211;-67
2021/12/03 09:07:46;;;;;;;3.43;1.80;;;1.40;99.90;;;2.07;99.18;99708.13;4996131;28;20265;-65
2021/12/03 09:10:21;;;;;;;3.50;2.00;;;1.30;99.90;;;2.10;99.08;99710.44;4995729;28;20222;-66
2021/12/03 09:12:49;;;;;;;2.50;2.00;;;1.40;99.90;;;2.24;98.10;99708.84;4995935;28;20207;-67
2021/12/03 09:15:24;;;;;;;3.80;2.50;;;1.40;99.90;;;2.14;98.41;99706.44;4996913;28;20230;-66
2021/12/03 09:18:06;;;;;;;2.77;2.10;;;1.40;99.90;;;2.36;96.22;99707.41;4996119;28;20270;-67
2021/12/03 09:24:41;;;;;;;2.30;1.57;;;1.50;99.90;;;2.44;96.58;99705.53;4994069;28;20261;-61
2021/12/03 09:27:10;;;;;;;2.63;2.07;;;1.60;99.90;;;2.39;96.43;99707.06;4992860;28;20634;-60
2021/12/03 09:29:39;;;;;;;3.03;2.03;;;1.60;99.90;;;2.29;96.64;99707.31;4992604;28;20190;-59
2021/12/03 09:32:08;;;;;;;2.93;1.60;;;1.70;99.90;;;2.43;96.83;99709.19;4992896;28;20733;-60
2021/12/03 09:34:36;;;;;;;1.97;1.70;;;1.70;99.90;;;2.38;97.21;99708.06;4992492;28;20224;-61
2021/12/03 09:37:04;;;;;;;3.67;2.20;;;1.60;99.90;;;2.38;96.70;99722.16;4992740;28;20188;-61
2021/12/03 09:39:34;;;;;;;3.17;1.90;;;1.70;99.90;;;2.46;96.49;99706.19;4988292;28;20625;-60
2021/12/03 09:42:02;;;;;;;2.97;1.90;;;1.70;99.90;;;2.50;95.54;99701.34;4991036;28;20206;-60
2021/12/03 09:44:31;;;;;;;4.50;2.13;;;1.80;99.90;;;2.75;94.59;99701.91;4991372;28;20199;-60
2021/12/03 09:47:00;;;;;;;4.33;2.40;;;1.90;99.90;;;3.13;92.52;99696.34;4992302;28;20226;-60
2021/12/03 09:49:39;;;;;;;3.60;2.33;;;2.10;99.90;;;3.09;92.51;99711.06;4992053;28;20227;-60
2021/12/03 09:52:13;;;;;;;2.83;2.30;;;2.10;99.90;;;2.94;94.28;99710.22;4992190;28;20279;-61
2021/12/03 09:54:45;;;;;;;3.83;1.90;;;2.10;99.90;;;2.77;94.44;99705.22;4992071;28;20647;-72
2021/12/03 09:57:30;;;;;;;3.73;2.53;;;2.10;99.90;;;2.58;95.76;99703.91;4992556;28;20230;-71
2021/12/03 10:00:12;;;;;;;4.13;2.73;;;1.90;99.90;;;2.51;97.09;99705.63;4992202;28;20283;-69
2021/12/03 10:03:08;;;;;;;4.83;2.83;;;1.80;99.90;;;2.49;97.93;99705.81;4991820;28;20207;-72
2021/12/03 10:14:57;;;;;;;4.07;2.83;;;1.80;99.90;;;2.60;99.46;99698.41;4991129;28;20214;-60
2021/12/03 10:17:49;;;;;;;6.13;3.17;;;1.80;99.90;;;2.76;98.13;99693.75;4991656;28;20230;-60
2021/12/03 10:20:29;;;;;;;4.97;3.50;;;1.90;99.90;;;2.64;99.16;99702.38;4991301;28;20280;-59
2021/12/03 10:24:09;;;;;;;5.10;3.60;;;1.90;99.90;;;2.52;100.00;99690.50;4991393;28;20198;-61
2021/12/03 10:29:33;;;;;;;5.67;4.30;;;1.70;99.90;;;2.44;100.00;99678.13;4991130;28;20691;-60
2021/12/03 10:41:07;;;;;;;4.30;3.50;;;1.80;99.90;;;2.81;100.00;99667.44;4989605;28;20294;-61
2021/12/03 10:44:04;;;;;;;3.73;2.70;;;2.00;99.90;;;2.88;96.86;99659.56;4991102;28;20310;-60
2021/12/03 10:46:57;;;;;;;3.43;2.70;;;2.10;99.90;;;2.82;96.72;99649.66;4990991;28;20194;-64
2021/12/03 10:49:54;;;;;;;4.10;2.63;;;2.10;99.90;;;3.00;96.17;99637.66;4986872;28;20211;-58
2021/12/03 10:52:32;;;;;;;4.77;3.00;;;2.20;99.90;;;3.17;95.55;99632.97;4990939;28;20251;-59
2021/12/03 10:55:42;;;;;;;3.70;2.60;;;2.30;99.90;;;3.11;95.16;99629.19;4990490;28;20762;-60
2021/12/03 10:58:39;;;;;;;4.47;2.87;;;2.30;99.90;;;3.33;95.35;99627.44;4991179;28;20207;-60
2021/12/03 11:01:58;;;;;;;3.97;2.90;;;2.40;99.90;;;3.29;95.71;99624.31;4990791;28;20190;-61
2021/12/03 11:08:05;;;;;;;5.10;3.00;;;2.50;99.90;;;3.33;96.17;99617.59;4984781;28;20242;-61